sensor_id;sensor_type;location;lat;lon;timestamp;P1;durP1;ratioP1;P2;durP2;ratioP2
26484;SDS011;18083;50.560;7.262;2023-06-14T00:02:07;6.60;;;5.92;;
26484;SDS011;18083;50.560;7.262;2023-06-14T00:04:35;8.73;;;6.00;;
26484;SDS011;18083;50.560;7.262;2023-06-14T00:07:04;6.60;;;5.28;;
26484;SDS011;18083;50.560;7.262;2023-06-14T00:09:33;7.30;;;5.40;;
26484;SDS011;18083;50.560;7.262;2023-06-14T00:12:00;8.30;;;6.20;;
26484;SDS011;18083;50.560;7.262;2023-06-14T00:14:27;9.08;;;6.65;;
26484;SDS011;18083;50.560;7.262;2023-06-14T00:16:54;8.23;;;5.37;;
26484;SDS011;18083;50.560;7.262;2023-06-14T00:19:24;8.25;;;5.95;;
26484;SDS011;18083;50.560;7.262;2023-06-14T00:21:51;7.12;;;5.87;;
26484;SDS011;18083;50.560;7.262;2023-06-14T00:24:19;6.03;;;5.42;;
26484;SDS011;18083;50.560;7.262;2023-06-14T00:26:46;8.78;;;6.20;;
26484;SDS011;18083;50.560;7.262;2023-06-14T00:29:14;8.08;;;6.03;;
26484;SDS011;18083;50.560;7.262;2023-06-14T00:31:41;8.10;;;6.30;;
26484;SDS011;18083;50.560;7.262;2023-06-14T00:34:08;6.92;;;6.22;;
26484;SDS011;18083;50.560;7.262;2023-06-14T00:36:36;7.83;;;5.75;;
26484;SDS011;18083;50.560;7.262;2023-06-14T00:39:03;6.45;;;5.60;;
26484;SDS011;18083;50.560;7.262;2023-06-14T00:41:30;7.53;;;6.30;;
26484;SDS011;18083;50.560;7.262;2023-06-14T00:43:57;6.75;;;5.78;;
26484;SDS011;18083;50.560;7.262;2023-06-14T00:46:26;9.05;;;7.12;;
26484;SDS011;18083;50.560;7.262;2023-06-14T00:48:53;8.05;;;5.30;;
26484;SDS011;18083;50.560;7.262;2023-06-14T00:51:22;6.62;;;5.85;;
26484;SDS011;18083;50.560;7.262;2023-06-14T00:53:50;7.62;;;5.28;;
26484;SDS011;18083;50.560;7.262;2023-06-14T00:56:18;7.72;;;5.67;;
26484;SDS011;18083;50.560;7.262;2023-06-14T00:58:47;7.97;;;5.22;;
26484;SDS011;18083;50.560;7.262;2023-06-14T01:01:14;6.42;;;5.40;;
26484;SDS011;18083;50.560;7.262;2023-06-14T01:03:41;6.45;;;5.40;;
26484;SDS011;18083;50.560;7.262;2023-06-14T01:09:16;7.05;;;5.55;;
26484;SDS011;18083;50.560;7.262;2023-06-14T01:12:07;7.17;;;6.47;;
26484;SDS011;18083;50.560;7.262;2023-06-14T01:14:12;6.97;;;6.28;;
26484;SDS011;18083;50.560;7.262;2023-06-14T01:17:01;11.08;;;5.50;;
26484;SDS011;18083;50.560;7.262;2023-06-14T01:19:29;6.83;;;6.12;;
26484;SDS011;18083;50.560;7.262;2023-06-14T01:21:58;8.50;;;6.45;;
26484;SDS011;18083;50.560;7.262;2023-06-14T01:24:46;7.35;;;6.65;;
26484;SDS011;18083;50.560;7.262;2023-06-14T01:27:13;6.20;;;5.45;;
26484;SDS011;18083;50.560;7.262;2023-06-14T01:29:42;6.85;;;6.17;;
26484;SDS011;18083;50.560;7.262;2023-06-14T01:32:11;9.48;;;5.70;;
26484;SDS011;18083;50.560;7.262;2023-06-14T01:34:38;6.67;;;6.08;;
26484;SDS011;18083;50.560;7.262;2023-06-14T01:37:06;6.42;;;5.75;;
26484;SDS011;18083;50.560;7.262;2023-06-14T01:39:33;6.20;;;5.62;;
26484;SDS011;18083;50.560;7.262;2023-06-14T01:42:01;7.00;;;5.72;;
26484;SDS011;18083;50.560;7.262;2023-06-14T01:44:29;9.60;;;5.97;;
26484;SDS011;18083;50.560;7.262;2023-06-14T01:46:56;10.90;;;6.75;;
26484;SDS011;18083;50.560;7.262;2023-06-14T01:49:23;5.78;;;5.28;;
26484;SDS011;18083;50.560;7.262;2023-06-14T01:51:51;6.42;;;5.83;;
26484;SDS011;18083;50.560;7.262;2023-06-14T01:54:18;6.92;;;5.65;;
26484;SDS011;18083;50.560;7.262;2023-06-14T01:56:45;6.78;;;5.97;;
26484;SDS011;18083;50.560;7.262;2023-06-14T01:59:13;7.62;;;5.83;;
26484;SDS011;18083;50.560;7.262;2023-06-14T02:01:40;9.75;;;6.35;;
26484;SDS011;18083;50.560;7.262;2023-06-14T02:04:07;6.55;;;5.37;;
26484;SDS011;18083;50.560;7.262;2023-06-14T02:06:34;8.58;;;6.10;;
26484;SDS011;18083;50.560;7.262;2023-06-14T02:09:02;16.32;;;6.37;;
26484;SDS011;18083;50.560;7.262;2023-06-14T02:11:29;8.83;;;6.25;;
26484;SDS011;18083;50.560;7.262;2023-06-14T02:16:43;8.65;;;6.97;;
26484;SDS011;18083;50.560;7.262;2023-06-14T02:19:15;11.83;;;6.67;;
26484;SDS011;18083;50.560;7.262;2023-06-14T02:24:29;7.97;;;6.42;;
26484;SDS011;18083;50.560;7.262;2023-06-14T02:26:57;9.33;;;6.87;;
26484;SDS011;18083;50.560;7.262;2023-06-14T02:29:24;8.08;;;6.47;;
26484;SDS011;18083;50.560;7.262;2023-06-14T02:31:51;9.48;;;6.42;;
26484;SDS011;18083;50.560;7.262;2023-06-14T02:34:19;9.90;;;7.62;;
26484;SDS011;18083;50.560;7.262;2023-06-14T02:36:48;8.35;;;6.25;;
26484;SDS011;18083;50.560;7.262;2023-06-14T02:39:16;10.03;;;6.40;;
26484;SDS011;18083;50.560;7.262;2023-06-14T02:41:44;6.70;;;6.10;;
26484;SDS011;18083;50.560;7.262;2023-06-14T02:44:12;7.83;;;6.58;;
26484;SDS011;18083;50.560;7.262;2023-06-14T02:46:40;6.80;;;6.10;;
26484;SDS011;18083;50.560;7.262;2023-06-14T02:49:07;8.65;;;6.58;;
26484;SDS011;18083;50.560;7.262;2023-06-14T02:51:34;7.55;;;6.47;;
26484;SDS011;18083;50.560;7.262;2023-06-14T02:54:02;7.00;;;6.30;;
26484;SDS011;18083;50.560;7.262;2023-06-14T02:56:29;11.50;;;7.33;;
26484;SDS011;18083;50.560;7.262;2023-06-14T02:58:56;7.22;;;6.12;;
26484;SDS011;18083;50.560;7.262;2023-06-14T03:01:25;7.90;;;6.58;;
26484;SDS011;18083;50.560;7.262;2023-06-14T03:03:54;7.17;;;6.47;;
26484;SDS011;18083;50.560;7.262;2023-06-14T03:06:21;7.80;;;7.12;;
26484;SDS011;18083;50.560;7.262;2023-06-14T03:08:50;7.45;;;6.65;;
26484;SDS011;18083;50.560;7.262;2023-06-14T03:11:19;10.55;;;6.97;;
26484;SDS011;18083;50.560;7.262;2023-06-14T03:13:46;7.87;;;7.08;;
26484;SDS011;18083;50.560;7.262;2023-06-14T03:16:14;7.85;;;6.35;;
26484;SDS011;18083;50.560;7.262;2023-06-14T03:18:41;9.40;;;7.72;;
26484;SDS011;18083;50.560;7.262;2023-06-14T03:21:08;9.15;;;7.03;;
26484;SDS011;18083;50.560;7.262;2023-06-14T03:23:37;9.73;;;7.55;;
26484;SDS011;18083;50.560;7.262;2023-06-14T03:26:04;7.22;;;6.42;;
26484;SDS011;18083;50.560;7.262;2023-06-14T03:28:32;10.32;;;6.15;;
26484;SDS011;18083;50.560;7.262;2023-06-14T03:33:45;7.95;;;7.15;;
26484;SDS011;18083;50.560;7.262;2023-06-14T03:36:13;9.05;;;7.33;;
26484;SDS011;18083;50.560;7.262;2023-06-14T03:38:40;7.92;;;7.17;;
26484;SDS011;18083;50.560;7.262;2023-06-14T03:41:07;13.78;;;7.97;;
26484;SDS011;18083;50.560;7.262;2023-06-14T03:43:34;8.05;;;6.60;;
26484;SDS011;18083;50.560;7.262;2023-06-14T03:46:02;7.50;;;6.72;;
26484;SDS011;18083;50.560;7.262;2023-06-14T03:48:29;10.30;;;6.87;;
26484;SDS011;18083;50.560;7.262;2023-06-14T03:50:57;8.45;;;6.85;;
26484;SDS011;18083;50.560;7.262;2023-06-14T03:53:24;8.45;;;6.78;;
26484;SDS011;18083;50.560;7.262;2023-06-14T03:55:53;8.60;;;6.53;;
26484;SDS011;18083;50.560;7.262;2023-06-14T03:58:20;8.98;;;7.58;;
26484;SDS011;18083;50.560;7.262;2023-06-14T04:00:48;8.88;;;6.90;;
26484;SDS011;18083;50.560;7.262;2023-06-14T04:03:15;8.53;;;6.97;;
26484;SDS011;18083;50.560;7.262;2023-06-14T04:05:42;12.53;;;6.55;;
26484;SDS011;18083;50.560;7.262;2023-06-14T04:08:10;12.10;;;6.67;;
26484;SDS011;18083;50.560;7.262;2023-06-14T04:10:39;13.50;;;7.15;;
26484;SDS011;18083;50.560;7.262;2023-06-14T04:13:07;11.83;;;6.75;;
26484;SDS011;18083;50.560;7.262;2023-06-14T04:15:34;8.55;;;6.58;;
26484;SDS011;18083;50.560;7.262;2023-06-14T04:18:02;10.10;;;6.80;;
26484;SDS011;18083;50.560;7.262;2023-06-14T04:20:29;10.68;;;7.20;;
26484;SDS011;18083;50.560;7.262;2023-06-14T04:25:44;8.13;;;6.10;;
26484;SDS011;18083;50.560;7.262;2023-06-14T04:28:13;10.72;;;6.72;;
26484;SDS011;18083;50.560;7.262;2023-06-14T04:30:43;8.20;;;7.37;;
26484;SDS011;18083;50.560;7.262;2023-06-14T04:33:11;8.45;;;6.72;;
26484;SDS011;18083;50.560;7.262;2023-06-14T04:35:38;7.70;;;6.97;;
26484;SDS011;18083;50.560;7.262;2023-06-14T04:38:06;10.03;;;7.45;;
26484;SDS011;18083;50.560;7.262;2023-06-14T04:40:36;7.62;;;6.67;;
26484;SDS011;18083;50.560;7.262;2023-06-14T04:43:08;7.65;;;6.85;;
26484;SDS011;18083;50.560;7.262;2023-06-14T04:45:37;7.50;;;6.80;;
26484;SDS011;18083;50.560;7.262;2023-06-14T04:48:06;9.40;;;6.62;;
26484;SDS011;18083;50.560;7.262;2023-06-14T04:50:33;9.98;;;6.83;;
26484;SDS011;18083;50.560;7.262;2023-06-14T04:53:01;9.73;;;6.72;;
26484;SDS011;18083;50.560;7.262;2023-06-14T04:55:29;7.25;;;6.50;;
26484;SDS011;18083;50.560;7.262;2023-06-14T04:57:57;14.73;;;6.67;;
26484;SDS011;18083;50.560;7.262;2023-06-14T05:00:24;7.60;;;6.83;;
26484;SDS011;18083;50.560;7.262;2023-06-14T05:02:52;7.90;;;6.25;;
26484;SDS011;18083;50.560;7.262;2023-06-14T05:05:19;10.00;;;6.47;;
26484;SDS011;18083;50.560;7.262;2023-06-14T05:07:46;10.95;;;7.08;;
26484;SDS011;18083;50.560;7.262;2023-06-14T05:10:14;9.55;;;6.67;;
26484;SDS011;18083;50.560;7.262;2023-06-14T05:12:41;9.35;;;6.40;;
26484;SDS011;18083;50.560;7.262;2023-06-14T05:15:10;7.40;;;6.37;;
26484;SDS011;18083;50.560;7.262;2023-06-14T05:17:37;8.08;;;7.28;;
26484;SDS011;18083;50.560;7.262;2023-06-14T05:20:25;12.88;;;8.85;;
26484;SDS011;18083;50.560;7.262;2023-06-14T05:22:53;7.17;;;6.47;;
26484;SDS011;18083;50.560;7.262;2023-06-14T05:25:20;14.43;;;6.70;;
26484;SDS011;18083;50.560;7.262;2023-06-14T05:27:48;9.28;;;6.40;;
26484;SDS011;18083;50.560;7.262;2023-06-14T05:30:37;8.98;;;6.53;;
26484;SDS011;18083;50.560;7.262;2023-06-14T05:33:04;8.33;;;7.35;;
26484;SDS011;18083;50.560;7.262;2023-06-14T05:35:31;7.42;;;6.00;;
26484;SDS011;18083;50.560;7.262;2023-06-14T05:37:59;9.63;;;5.97;;
26484;SDS011;18083;50.560;7.262;2023-06-14T05:40:26;6.78;;;6.08;;
26484;SDS011;18083;50.560;7.262;2023-06-14T05:42:53;13.50;;;7.35;;
26484;SDS011;18083;50.560;7.262;2023-06-14T05:45:21;9.33;;;6.45;;
26484;SDS011;18083;50.560;7.262;2023-06-14T05:47:48;6.60;;;6.00;;
26484;SDS011;18083;50.560;7.262;2023-06-14T05:50:16;8.33;;;7.53;;
26484;SDS011;18083;50.560;7.262;2023-06-14T05:52:44;8.05;;;6.55;;
26484;SDS011;18083;50.560;7.262;2023-06-14T05:55:11;6.92;;;6.15;;
26484;SDS011;18083;50.560;7.262;2023-06-14T05:57:39;12.07;;;7.15;;
26484;SDS011;18083;50.560;7.262;2023-06-14T06:00:07;8.83;;;7.03;;
26484;SDS011;18083;50.560;7.262;2023-06-14T06:02:47;13.00;;;6.35;;
26484;SDS011;18083;50.560;7.262;2023-06-14T06:05:11;7.50;;;5.62;;
26484;SDS011;18083;50.560;7.262;2023-06-14T06:07:38;10.90;;;6.55;;
26484;SDS011;18083;50.560;7.262;2023-06-14T06:10:06;10.20;;;6.35;;
26484;SDS011;18083;50.560;7.262;2023-06-14T06:12:34;7.87;;;6.55;;
26484;SDS011;18083;50.560;7.262;2023-06-14T06:15:01;10.78;;;6.53;;
26484;SDS011;18083;50.560;7.262;2023-06-14T06:17:29;6.72;;;5.58;;
26484;SDS011;18083;50.560;7.262;2023-06-14T06:19:56;10.43;;;5.33;;
26484;SDS011;18083;50.560;7.262;2023-06-14T06:22:24;8.33;;;6.72;;
26484;SDS011;18083;50.560;7.262;2023-06-14T06:24:51;5.58;;;5.08;;
26484;SDS011;18083;50.560;7.262;2023-06-14T06:27:18;7.28;;;5.72;;
26484;SDS011;18083;50.560;7.262;2023-06-14T06:29:46;9.08;;;6.03;;
26484;SDS011;18083;50.560;7.262;2023-06-14T06:32:15;8.63;;;6.10;;
26484;SDS011;18083;50.560;7.262;2023-06-14T06:34:42;9.23;;;5.37;;
26484;SDS011;18083;50.560;7.262;2023-06-14T06:37:09;7.33;;;5.17;;
26484;SDS011;18083;50.560;7.262;2023-06-14T06:39:37;7.95;;;5.15;;
26484;SDS011;18083;50.560;7.262;2023-06-14T06:42:04;7.15;;;5.58;;
26484;SDS011;18083;50.560;7.262;2023-06-14T06:44:32;8.10;;;5.25;;
26484;SDS011;18083;50.560;7.262;2023-06-14T06:47:00;5.90;;;4.67;;
26484;SDS011;18083;50.560;7.262;2023-06-14T06:49:28;17.10;;;5.00;;
26484;SDS011;18083;50.560;7.262;2023-06-14T06:52:04;7.30;;;4.65;;
26484;SDS011;18083;50.560;7.262;2023-06-14T06:54:28;6.00;;;4.75;;
26484;SDS011;18083;50.560;7.262;2023-06-14T06:56:56;5.22;;;4.55;;
26484;SDS011;18083;50.560;7.262;2023-06-14T06:59:23;5.37;;;4.47;;
26484;SDS011;18083;50.560;7.262;2023-06-14T07:01:50;5.53;;;3.60;;
26484;SDS011;18083;50.560;7.262;2023-06-14T07:04:18;6.75;;;4.10;;
26484;SDS011;18083;50.560;7.262;2023-06-14T07:06:45;3.40;;;2.98;;
26484;SDS011;18083;50.560;7.262;2023-06-14T07:09:13;7.42;;;4.05;;
26484;SDS011;18083;50.560;7.262;2023-06-14T07:11:45;4.65;;;3.90;;
26484;SDS011;18083;50.560;7.262;2023-06-14T07:14:12;4.35;;;3.87;;
26484;SDS011;18083;50.560;7.262;2023-06-14T07:16:40;6.05;;;4.70;;
26484;SDS011;18083;50.560;7.262;2023-06-14T07:19:07;7.95;;;5.37;;
26484;SDS011;18083;50.560;7.262;2023-06-14T07:21:35;6.12;;;4.10;;
26484;SDS011;18083;50.560;7.262;2023-06-14T07:24:05;4.97;;;4.12;;
26484;SDS011;18083;50.560;7.262;2023-06-14T07:26:34;5.62;;;4.20;;
26484;SDS011;18083;50.560;7.262;2023-06-14T07:29:01;4.42;;;4.03;;
26484;SDS011;18083;50.560;7.262;2023-06-14T07:31:29;6.00;;;4.75;;
26484;SDS011;18083;50.560;7.262;2023-06-14T07:33:56;4.17;;;3.58;;
26484;SDS011;18083;50.560;7.262;2023-06-14T07:36:23;6.10;;;4.17;;
26484;SDS011;18083;50.560;7.262;2023-06-14T07:38:51;5.92;;;3.40;;
26484;SDS011;18083;50.560;7.262;2023-06-14T07:41:18;7.95;;;4.12;;
26484;SDS011;18083;50.560;7.262;2023-06-14T07:43:46;4.22;;;3.45;;
26484;SDS011;18083;50.560;7.262;2023-06-14T07:46:14;3.60;;;3.30;;
26484;SDS011;18083;50.560;7.262;2023-06-14T07:48:41;7.15;;;4.72;;
26484;SDS011;18083;50.560;7.262;2023-06-14T07:51:08;4.37;;;3.60;;
26484;SDS011;18083;50.560;7.262;2023-06-14T07:53:36;8.93;;;3.30;;
26484;SDS011;18083;50.560;7.262;2023-06-14T07:56:03;4.05;;;3.20;;
26484;SDS011;18083;50.560;7.262;2023-06-14T07:58:31;3.47;;;2.95;;
26484;SDS011;18083;50.560;7.262;2023-06-14T08:00:58;4.95;;;4.25;;
26484;SDS011;18083;50.560;7.262;2023-06-14T08:03:26;6.45;;;3.35;;
26484;SDS011;18083;50.560;7.262;2023-06-14T08:05:53;5.10;;;3.20;;
26484;SDS011;18083;50.560;7.262;2023-06-14T08:08:21;3.37;;;2.77;;
26484;SDS011;18083;50.560;7.262;2023-06-14T08:10:49;4.00;;;3.45;;
26484;SDS011;18083;50.560;7.262;2023-06-14T08:13:16;4.15;;;3.00;;
26484;SDS011;18083;50.560;7.262;2023-06-14T08:15:44;3.08;;;2.77;;
26484;SDS011;18083;50.560;7.262;2023-06-14T08:18:11;6.62;;;3.50;;
26484;SDS011;18083;50.560;7.262;2023-06-14T08:20:38;3.60;;;2.45;;
26484;SDS011;18083;50.560;7.262;2023-06-14T08:23:06;4.15;;;2.85;;
26484;SDS011;18083;50.560;7.262;2023-06-14T08:25:35;4.37;;;2.85;;
26484;SDS011;18083;50.560;7.262;2023-06-14T08:28:04;6.53;;;2.98;;
26484;SDS011;18083;50.560;7.262;2023-06-14T08:30:31;5.37;;;3.47;;
26484;SDS011;18083;50.560;7.262;2023-06-14T08:32:58;3.77;;;3.02;;
26484;SDS011;18083;50.560;7.262;2023-06-14T08:35:26;2.92;;;2.62;;
26484;SDS011;18083;50.560;7.262;2023-06-14T08:37:53;4.37;;;2.85;;
26484;SDS011;18083;50.560;7.262;2023-06-14T08:40:21;2.37;;;2.00;;
26484;SDS011;18083;50.560;7.262;2023-06-14T08:43:01;3.70;;;2.05;;
26484;SDS011;18083;50.560;7.262;2023-06-14T08:45:49;5.85;;;2.62;;
26484;SDS011;18083;50.560;7.262;2023-06-14T08:48:23;2.40;;;1.70;;
26484;SDS011;18083;50.560;7.262;2023-06-14T08:50:55;2.05;;;1.80;;
26484;SDS011;18083;50.560;7.262;2023-06-14T08:53:25;3.98;;;1.90;;
26484;SDS011;18083;50.560;7.262;2023-06-14T08:55:53;1.45;;;1.35;;
26484;SDS011;18083;50.560;7.262;2023-06-14T08:58:21;4.65;;;2.30;;
26484;SDS011;18083;50.560;7.262;2023-06-14T09:00:50;2.83;;;1.57;;
26484;SDS011;18083;50.560;7.262;2023-06-14T09:03:18;2.10;;;1.80;;
26484;SDS011;18083;50.560;7.262;2023-06-14T09:05:47;2.37;;;1.40;;
26484;SDS011;18083;50.560;7.262;2023-06-14T09:08:16;4.22;;;2.02;;
26484;SDS011;18083;50.560;7.262;2023-06-14T09:10:45;1.98;;;1.75;;
26484;SDS011;18083;50.560;7.262;2023-06-14T09:13:12;1.98;;;1.75;;
26484;SDS011;18083;50.560;7.262;2023-06-14T09:15:39;3.87;;;1.62;;
26484;SDS011;18083;50.560;7.262;2023-06-14T09:18:07;5.80;;;2.10;;
26484;SDS011;18083;50.560;7.262;2023-06-14T09:20:34;3.70;;;2.12;;
26484;SDS011;18083;50.560;7.262;2023-06-14T09:23:01;3.27;;;1.90;;
26484;SDS011;18083;50.560;7.262;2023-06-14T09:25:31;4.37;;;2.42;;
26484;SDS011;18083;50.560;7.262;2023-06-14T09:27:58;4.95;;;2.20;;
26484;SDS011;18083;50.560;7.262;2023-06-14T09:30:26;3.42;;;2.17;;
26484;SDS011;18083;50.560;7.262;2023-06-14T09:32:53;2.33;;;1.75;;
26484;SDS011;18083;50.560;7.262;2023-06-14T09:35:21;2.52;;;2.33;;
26484;SDS011;18083;50.560;7.262;2023-06-14T09:37:48;2.45;;;2.25;;
26484;SDS011;18083;50.560;7.262;2023-06-14T09:40:20;3.67;;;2.27;;
26484;SDS011;18083;50.560;7.262;2023-06-14T09:42:50;2.72;;;1.80;;
26484;SDS011;18083;50.560;7.262;2023-06-14T09:45:18;3.58;;;2.27;;
26484;SDS011;18083;50.560;7.262;2023-06-14T09:47:53;4.62;;;2.30;;
26484;SDS011;18083;50.560;7.262;2023-06-14T09:50:17;3.15;;;2.00;;
26484;SDS011;18083;50.560;7.262;2023-06-14T09:52:44;1.87;;;1.77;;
26484;SDS011;18083;50.560;7.262;2023-06-14T09:55:13;2.45;;;2.00;;
26484;SDS011;18083;50.560;7.262;2023-06-14T09:57:42;2.55;;;2.30;;
26484;SDS011;18083;50.560;7.262;2023-06-14T10:00:10;3.72;;;2.10;;
26484;SDS011;18083;50.560;7.262;2023-06-14T10:02:39;2.77;;;2.10;;
26484;SDS011;18083;50.560;7.262;2023-06-14T10:05:09;2.70;;;2.10;;
26484;SDS011;18083;50.560;7.262;2023-06-14T10:07:39;2.65;;;1.90;;
26484;SDS011;18083;50.560;7.262;2023-06-14T10:10:10;2.95;;;2.22;;
26484;SDS011;18083;50.560;7.262;2023-06-14T10:12:42;2.20;;;2.00;;
26484;SDS011;18083;50.560;7.262;2023-06-14T10:15:14;2.60;;;2.40;;
26484;SDS011;18083;50.560;7.262;2023-06-14T10:17:42;2.60;;;1.87;;
26484;SDS011;18083;50.560;7.262;2023-06-14T10:22:50;2.37;;;2.17;;
26484;SDS011;18083;50.560;7.262;2023-06-14T10:25:28;1.87;;;1.77;;
26484;SDS011;18083;50.560;7.262;2023-06-14T10:28:17;4.22;;;1.92;;
26484;SDS011;18083;50.560;7.262;2023-06-14T10:30:27;3.00;;;2.30;;
26484;SDS011;18083;50.560;7.262;2023-06-14T10:33:04;4.22;;;2.33;;
26484;SDS011;18083;50.560;7.262;2023-06-14T10:35:23;3.12;;;2.15;;
26484;SDS011;18083;50.560;7.262;2023-06-14T10:37:50;13.35;;;2.52;;
26484;SDS011;18083;50.560;7.262;2023-06-14T10:40:31;3.67;;;2.00;;
26484;SDS011;18083;50.560;7.262;2023-06-14T10:42:58;3.35;;;1.95;;
26484;SDS011;18083;50.560;7.262;2023-06-14T10:45:25;2.65;;;2.12;;
26484;SDS011;18083;50.560;7.262;2023-06-14T10:47:53;3.77;;;1.92;;
26484;SDS011;18083;50.560;7.262;2023-06-14T10:50:27;3.27;;;2.12;;
26484;SDS011;18083;50.560;7.262;2023-06-14T10:52:50;4.78;;;1.92;;
26484;SDS011;18083;50.560;7.262;2023-06-14T10:55:18;3.02;;;2.05;;
26484;SDS011;18083;50.560;7.262;2023-06-14T10:57:51;1.98;;;1.62;;
26484;SDS011;18083;50.560;7.262;2023-06-14T11:00:18;2.17;;;1.52;;
26484;SDS011;18083;50.560;7.262;2023-06-14T11:02:51;2.05;;;1.80;;
26484;SDS011;18083;50.560;7.262;2023-06-14T11:05:24;2.77;;;1.87;;
26484;SDS011;18083;50.560;7.262;2023-06-14T11:10:37;2.83;;;2.05;;
26484;SDS011;18083;50.560;7.262;2023-06-14T11:13:06;1.92;;;1.75;;
26484;SDS011;18083;50.560;7.262;2023-06-14T11:18:17;2.58;;;1.87;;
26484;SDS011;18083;50.560;7.262;2023-06-14T11:21:09;2.05;;;1.52;;
26484;SDS011;18083;50.560;7.262;2023-06-14T11:23:42;4.90;;;1.77;;
26484;SDS011;18083;50.560;7.262;2023-06-14T11:26:51;1.57;;;1.47;;
26484;SDS011;18083;50.560;7.262;2023-06-14T11:28:49;1.32;;;1.22;;
26484;SDS011;18083;50.560;7.262;2023-06-14T11:31:20;2.20;;;1.55;;
26484;SDS011;18083;50.560;7.262;2023-06-14T11:33:52;1.92;;;1.82;;
26484;SDS011;18083;50.560;7.262;2023-06-14T11:36:16;1.40;;;1.30;;
26484;SDS011;18083;50.560;7.262;2023-06-14T11:38:43;2.37;;;1.40;;
26484;SDS011;18083;50.560;7.262;2023-06-14T11:41:11;4.53;;;1.30;;
26484;SDS011;18083;50.560;7.262;2023-06-14T11:43:39;2.20;;;1.60;;
26484;SDS011;18083;50.560;7.262;2023-06-14T11:46:15;1.50;;;1.40;;
26484;SDS011;18083;50.560;7.262;2023-06-14T11:48:38;2.15;;;1.80;;
26484;SDS011;18083;50.560;7.262;2023-06-14T11:51:05;1.42;;;1.32;;
26484;SDS011;18083;50.560;7.262;2023-06-14T11:53:33;1.40;;;1.22;;
26484;SDS011;18083;50.560;7.262;2023-06-14T11:56:00;2.22;;;1.17;;
26484;SDS011;18083;50.560;7.262;2023-06-14T11:58:29;2.30;;;1.60;;
26484;SDS011;18083;50.560;7.262;2023-06-14T12:00:56;2.25;;;1.55;;
26484;SDS011;18083;50.560;7.262;2023-06-14T12:03:24;2.83;;;1.47;;
26484;SDS011;18083;50.560;7.262;2023-06-14T12:11:04;1.80;;;1.70;;
26484;SDS011;18083;50.560;7.262;2023-06-14T12:13:32;4.35;;;1.42;;
26484;SDS011;18083;50.560;7.262;2023-06-14T12:15:59;1.77;;;1.47;;
26484;SDS011;18083;50.560;7.262;2023-06-14T12:21:25;3.90;;;1.92;;
26484;SDS011;18083;50.560;7.262;2023-06-14T12:26:41;3.02;;;1.70;;
26484;SDS011;18083;50.560;7.262;2023-06-14T12:29:06;2.55;;;1.72;;
26484;SDS011;18083;50.560;7.262;2023-06-14T12:31:34;3.08;;;1.60;;
26484;SDS011;18083;50.560;7.262;2023-06-14T12:34:01;2.45;;;1.32;;
26484;SDS011;18083;50.560;7.262;2023-06-14T12:36:28;1.20;;;1.10;;
26484;SDS011;18083;50.560;7.262;2023-06-14T12:38:56;1.37;;;1.10;;
26484;SDS011;18083;50.560;7.262;2023-06-14T12:41:23;2.20;;;1.35;;
26484;SDS011;18083;50.560;7.262;2023-06-14T12:43:50;1.40;;;1.30;;
26484;SDS011;18083;50.560;7.262;2023-06-14T12:46:18;3.42;;;1.75;;
26484;SDS011;18083;50.560;7.262;2023-06-14T12:48:45;1.72;;;1.30;;
26484;SDS011;18083;50.560;7.262;2023-06-14T12:51:12;5.80;;;1.90;;
26484;SDS011;18083;50.560;7.262;2023-06-14T12:53:39;4.05;;;1.65;;
26484;SDS011;18083;50.560;7.262;2023-06-14T12:56:07;2.08;;;1.65;;
26484;SDS011;18083;50.560;7.262;2023-06-14T12:58:34;2.08;;;1.50;;
26484;SDS011;18083;50.560;7.262;2023-06-14T13:01:01;1.65;;;1.55;;
26484;SDS011;18083;50.560;7.262;2023-06-14T13:03:28;1.95;;;1.77;;
26484;SDS011;18083;50.560;7.262;2023-06-14T13:05:56;2.72;;;1.90;;
26484;SDS011;18083;50.560;7.262;2023-06-14T13:08:23;3.62;;;1.50;;
26484;SDS011;18083;50.560;7.262;2023-06-14T13:10:50;1.80;;;1.57;;
26484;SDS011;18083;50.560;7.262;2023-06-14T13:13:18;2.42;;;2.10;;
26484;SDS011;18083;50.560;7.262;2023-06-14T13:15:45;4.37;;;2.00;;
26484;SDS011;18083;50.560;7.262;2023-06-14T13:18:12;3.55;;;1.95;;
26484;SDS011;18083;50.560;7.262;2023-06-14T13:20:39;1.85;;;1.52;;
26484;SDS011;18083;50.560;7.262;2023-06-14T13:23:07;3.15;;;1.70;;
26484;SDS011;18083;50.560;7.262;2023-06-14T13:25:35;6.75;;;2.27;;
26484;SDS011;18083;50.560;7.262;2023-06-14T13:28:03;2.30;;;2.05;;
26484;SDS011;18083;50.560;7.262;2023-06-14T13:30:31;2.33;;;2.12;;
26484;SDS011;18083;50.560;7.262;2023-06-14T13:32:59;2.55;;;2.17;;
26484;SDS011;18083;50.560;7.262;2023-06-14T13:35:26;3.22;;;2.17;;
26484;SDS011;18083;50.560;7.262;2023-06-14T13:40:30;2.27;;;2.08;;
26484;SDS011;18083;50.560;7.262;2023-06-14T13:42:57;2.72;;;2.15;;
26484;SDS011;18083;50.560;7.262;2023-06-14T13:45:24;2.30;;;2.10;;
26484;SDS011;18083;50.560;7.262;2023-06-14T13:47:52;4.15;;;2.22;;
26484;SDS011;18083;50.560;7.262;2023-06-14T13:50:20;3.92;;;2.00;;
26484;SDS011;18083;50.560;7.262;2023-06-14T13:52:47;3.05;;;2.70;;
26484;SDS011;18083;50.560;7.262;2023-06-14T13:55:15;2.67;;;2.35;;
26484;SDS011;18083;50.560;7.262;2023-06-14T13:57:42;4.40;;;2.15;;
26484;SDS011;18083;50.560;7.262;2023-06-14T14:00:09;2.10;;;2.00;;
26484;SDS011;18083;50.560;7.262;2023-06-14T14:02:37;1.98;;;1.87;;
26484;SDS011;18083;50.560;7.262;2023-06-14T14:05:06;2.10;;;1.90;;
26484;SDS011;18083;50.560;7.262;2023-06-14T14:07:33;2.47;;;1.70;;
26484;SDS011;18083;50.560;7.262;2023-06-14T14:10:02;2.35;;;2.17;;
26484;SDS011;18083;50.560;7.262;2023-06-14T14:12:30;2.30;;;2.02;;
26484;SDS011;18083;50.560;7.262;2023-06-14T14:14:57;2.30;;;1.90;;
26484;SDS011;18083;50.560;7.262;2023-06-14T14:17:24;3.85;;;2.02;;
26484;SDS011;18083;50.560;7.262;2023-06-14T14:19:52;1.82;;;1.72;;
26484;SDS011;18083;50.560;7.262;2023-06-14T14:22:20;2.40;;;2.27;;
26484;SDS011;18083;50.560;7.262;2023-06-14T14:24:47;3.08;;;1.92;;
26484;SDS011;18083;50.560;7.262;2023-06-14T14:27:14;4.85;;;2.00;;
26484;SDS011;18083;50.560;7.262;2023-06-14T14:29:41;2.12;;;1.92;;
26484;SDS011;18083;50.560;7.262;2023-06-14T14:32:09;3.75;;;2.12;;
26484;SDS011;18083;50.560;7.262;2023-06-14T14:34:37;2.85;;;2.65;;
26484;SDS011;18083;50.560;7.262;2023-06-14T14:37:05;2.30;;;2.00;;
26484;SDS011;18083;50.560;7.262;2023-06-14T14:39:32;3.33;;;2.30;;
26484;SDS011;18083;50.560;7.262;2023-06-14T14:41:59;2.20;;;2.00;;
26484;SDS011;18083;50.560;7.262;2023-06-14T14:44:27;2.12;;;2.00;;
26484;SDS011;18083;50.560;7.262;2023-06-14T14:46:54;4.10;;;1.95;;
26484;SDS011;18083;50.560;7.262;2023-06-14T14:49:21;4.92;;;1.70;;
26484;SDS011;18083;50.560;7.262;2023-06-14T14:51:48;3.35;;;2.25;;
26484;SDS011;18083;50.560;7.262;2023-06-14T14:54:16;4.10;;;1.80;;
26484;SDS011;18083;50.560;7.262;2023-06-14T14:56:43;2.42;;;2.22;;
26484;SDS011;18083;50.560;7.262;2023-06-14T14:59:10;3.10;;;2.02;;
26484;SDS011;18083;50.560;7.262;2023-06-14T15:01:38;2.37;;;2.08;;
26484;SDS011;18083;50.560;7.262;2023-06-14T15:04:05;2.37;;;2.20;;
26484;SDS011;18083;50.560;7.262;2023-06-14T15:06:32;2.55;;;2.17;;
26484;SDS011;18083;50.560;7.262;2023-06-14T15:09:01;2.60;;;1.90;;
26484;SDS011;18083;50.560;7.262;2023-06-14T15:11:28;3.50;;;2.08;;
26484;SDS011;18083;50.560;7.262;2023-06-14T15:13:56;4.37;;;2.30;;
26484;SDS011;18083;50.560;7.262;2023-06-14T15:16:23;2.75;;;1.85;;
26484;SDS011;18083;50.560;7.262;2023-06-14T15:18:51;2.00;;;1.90;;
26484;SDS011;18083;50.560;7.262;2023-06-14T15:21:18;2.47;;;1.80;;
26484;SDS011;18083;50.560;7.262;2023-06-14T15:23:46;3.62;;;2.30;;
26484;SDS011;18083;50.560;7.262;2023-06-14T15:26:13;3.27;;;2.60;;
26484;SDS011;18083;50.560;7.262;2023-06-14T15:28:40;2.67;;;2.45;;